Time;durP1;ratioP1;P1;durP2;ratioP2;P2;SDS_P1;SDS_P2;PMS_P1;PMS_P2;Temp;Humidity;BMP_temperature;BMP_pressure;BME280_temperature;BME280_humidity;BME280_pressure;Samples;Min_cycle;Max_cycle;Signal;HPM_P1;HPM_P2
2022/03/24 00:29:11;;;;;;;97.93;71.65;;;25.70;82.90;;;;;;4278313;27;25269852;-47
2022/03/24 00:31:37;;;;;;;87.57;62.90;;;26.10;80.90;;;;;;5162943;27;20027;-59
2022/03/24 00:34:05;;;;;;;77.13;55.05;;;26.10;80.70;;;;;;5144509;27;20019;-54
2022/03/24 00:36:34;;;;;;;77.72;55.03;;;26.20;80.60;;;;;;5162603;27;20210;-53
2022/03/24 00:39:01;;;;;;;72.22;48.53;;;26.20;80.60;;;;;;5163004;27;20035;-54
2022/03/24 00:41:28;;;;;;;61.42;43.53;;;26.20;80.30;;;;;;5162722;27;20068;-54
2022/03/24 00:43:55;;;;;;;57.60;40.55;;;26.20;80.10;;;;;;5162581;27;20023;-53
2022/03/24 00:46:22;;;;;;;46.13;33.03;;;26.20;80.00;;;;;;5162596;27;20150;-55
2022/03/24 00:48:53;;;;;;;41.40;31.95;;;26.30;80.30;;;;;;5162792;27;20019;-48
2022/03/24 00:51:20;;;;;;;47.17;32.50;;;26.30;80.00;;;;;;5162375;27;20075;-51
2022/03/24 00:53:48;;;;;;;44.40;28.65;;;26.30;80.30;;;;;;5162454;27;20334;-50
2022/03/24 00:56:15;;;;;;;42.58;30.33;;;26.30;79.90;;;;;;5162368;27;20057;-54
2022/03/24 00:58:41;;;;;;;44.08;31.67;;;26.30;80.00;;;;;;5162349;27;20027;-52
2022/03/24 01:01:12;;;;;;;38.72;29.00;;;26.30;79.70;;;;;;5162489;27;20218;-51
2022/03/24 01:03:41;;;;;;;38.13;28.02;;;26.30;79.60;;;;;;5162290;27;20082;-54
2022/03/24 01:06:09;;;;;;;41.80;28.35;;;26.30;79.60;;;;;;5162117;27;20014;-54
2022/03/24 01:08:36;;;;;;;34.95;28.00;;;26.30;79.90;;;;;;5162601;27;20047;-53
2022/03/24 01:11:06;;;;;;;38.92;26.77;;;26.30;80.00;;;;;;5162265;27;20026;-44
2022/03/24 01:13:34;;;;;;;29.35;23.40;;;26.30;79.80;;;;;;5162557;27;20125;-50
2022/03/24 01:16:03;;;;;;;28.83;22.23;;;26.40;79.70;;;;;;5129632;27;20065;-46
2022/03/24 01:18:34;;;;;;;31.88;21.55;;;26.40;79.90;;;;;;5136965;28;20032;-49
2022/03/24 01:21:03;;;;;;;27.35;18.00;;;26.40;80.00;;;;;;5141286;28;20034;-48
2022/03/24 01:23:30;;;;;;;31.30;19.27;;;26.40;79.50;;;;;;5141735;28;20033;-49
2022/03/24 01:26:02;;;;;;;26.30;17.92;;;26.40;79.80;;;;;;5141035;28;20334;-49
2022/03/24 01:28:29;;;;;;;29.02;17.30;;;26.40;79.20;;;;;;5118161;28;20036;-49
2022/03/24 01:30:56;;;;;;;23.30;15.93;;;26.40;79.50;;;;;;5106748;28;20036;-55
2022/03/24 01:33:23;;;;;;;25.88;16.40;;;26.40;79.90;;;;;;5107151;28;20028;-53
2022/03/24 01:35:50;;;;;;;20.00;15.10;;;26.40;79.70;;;;;;5105923;28;20216;-45
2022/03/24 01:38:19;;;;;;;18.80;15.65;;;26.40;79.70;;;;;;5088789;28;20036;-50
2022/03/24 01:40:45;;;;;;;17.23;14.65;;;26.40;79.70;;;;;;5106663;28;20074;-52
2022/03/24 01:43:12;;;;;;;20.73;16.23;;;26.40;79.90;;;;;;5107191;28;20027;-50
2022/03/24 01:45:39;;;;;;;24.00;14.93;;;26.40;79.70;;;;;;5106048;28;20031;-49
2022/03/24 01:48:08;;;;;;;16.60;14.88;;;26.40;79.30;;;;;;5106726;28;20031;-50
2022/03/24 01:50:36;;;;;;;20.23;14.95;;;26.40;78.70;;;;;;5087972;28;20385;-50
2022/03/24 01:53:04;;;;;;;18.05;15.20;;;26.40;78.40;;;;;;5107003;28;20043;-53
2022/03/24 01:55:33;;;;;;;18.00;14.35;;;26.40;78.40;;;;;;5106248;28;20032;-50
2022/03/24 01:58:00;;;;;;;18.10;15.25;;;26.40;78.40;;;;;;5106473;28;20027;-51
2022/03/24 02:00:28;;;;;;;16.08;14.48;;;26.40;78.00;;;;;;5106238;28;20024;-50
2022/03/24 02:02:55;;;;;;;16.55;14.75;;;26.40;78.30;;;;;;5106475;28;20099;-53
2022/03/24 02:05:22;;;;;;;19.88;15.90;;;26.40;78.40;;;;;;5105873;28;20024;-50
2022/03/24 02:07:50;;;;;;;17.30;14.63;;;26.40;78.40;;;;;;5106512;28;20078;-49
2022/03/24 02:10:17;;;;;;;16.10;14.07;;;26.40;77.50;;;;;;5088079;28;20323;-50
2022/03/24 02:12:43;;;;;;;16.33;14.55;;;26.40;76.90;;;;;;5106803;28;20202;-49
2022/03/24 02:15:11;;;;;;;17.90;15.30;;;26.40;77.40;;;;;;5088200;28;20047;-51
2022/03/24 02:17:39;;;;;;;17.38;15.50;;;26.40;77.10;;;;;;5106207;28;20085;-50
2022/03/24 23:26:18;;;;;;;28.90;23.00;;;27.30;74.30;;;;;;5095808;27;2096752;-56
2022/03/24 23:28:45;;;;;;;30.60;21.92;;;27.80;72.30;;;;;;5142435;27;20031;-54
2022/03/24 23:31:13;;;;;;;25.10;21.80;;;27.80;71.90;;;;;;5142364;27;20049;-55
2022/03/24 23:33:41;;;;;;;24.67;21.95;;;27.80;71.80;;;;;;5141961;27;20023;-57
2022/03/24 23:36:12;;;;;;;25.25;22.35;;;27.80;72.00;;;;;;5142272;27;20023;-56
2022/03/24 23:38:40;;;;;;;28.08;22.52;;;27.80;71.30;;;;;;5141970;27;20334;-55
2022/03/24 23:41:08;;;;;;;24.08;21.48;;;27.90;71.40;;;;;;5141922;27;20027;-52
2022/03/24 23:43:35;;;;;;;29.33;22.35;;;27.90;71.30;;;;;;5141794;28;20087;-54
2022/03/24 23:46:02;;;;;;;26.75;22.40;;;27.90;71.20;;;;;;5142006;27;20027;-56
2022/03/24 23:48:29;;;;;;;26.42;21.65;;;27.90;71.10;;;;;;5141176;28;20027;-56
2022/03/24 23:50:56;;;;;;;25.45;22.20;;;27.80;71.00;;;;;;5141907;27;20103;-56
2022/03/24 23:53:23;;;;;;;24.30;21.73;;;27.80;71.50;;;;;;5141768;27;20335;-54
2022/03/24 23:55:49;;;;;;;26.02;21.85;;;27.90;71.00;;;;;;5141408;27;20038;-54
2022/03/24 23:58:16;;;;;;;24.25;21.75;;;27.80;70.90;;;;;;5141655;27;20011;-49
